createdAt,value
2023-09-14T00:00:03.667Z,1015.7
2023-09-14T00:02:03.391Z,1015.7
2023-09-14T00:03:02.385Z,1015.7
2023-09-14T00:04:02.754Z,1015.7
2023-09-14T00:05:02.860Z,1015.7
2023-09-14T00:06:02.487Z,1015.8
2023-09-14T00:07:02.837Z,1015.8
2023-09-14T00:08:02.504Z,1015.9
2023-09-14T00:09:02.472Z,1015.8
2023-09-14T00:10:02.638Z,1015.9
2023-09-14T00:11:02.519Z,1015.9
2023-09-14T00:12:02.405Z,1015.8
2023-09-14T00:13:02.645Z,1015.9
2023-09-14T00:14:02.454Z,1015.8
2023-09-14T00:15:02.316Z,1015.8
2023-09-14T00:16:02.513Z,1015.9
2023-09-14T00:17:02.289Z,1015.8
2023-09-14T00:18:02.316Z,1015.8
2023-09-14T00:19:02.268Z,1015.8
2023-09-14T00:20:02.155Z,1015.9
2023-09-14T00:21:01.933Z,1015.8
2023-09-14T00:22:02.150Z,1015.9
2023-09-14T00:23:01.833Z,1015.9
2023-09-14T00:24:01.815Z,1015.8
2023-09-14T00:25:01.943Z,1015.8
2023-09-14T00:26:01.724Z,1015.8
2023-09-14T00:27:02.778Z,1015.7
2023-09-14T00:28:02.660Z,1015.8
2023-09-14T00:29:02.633Z,1015.8
2023-09-14T00:30:02.585Z,1015.8
2023-09-14T00:31:02.876Z,1015.8
2023-09-14T00:32:02.708Z,1015.7
2023-09-14T00:33:02.640Z,1015.7
2023-09-14T00:34:02.813Z,1015.7
2023-09-14T00:35:02.523Z,1015.7
2023-09-14T00:36:02.704Z,1015.7
2023-09-14T00:37:02.542Z,1015.7
2023-09-14T00:38:02.565Z,1015.7
2023-09-14T00:39:02.376Z,1015.7
2023-09-14T00:40:02.534Z,1015.7
2023-09-14T00:41:02.452Z,1015.7
2023-09-14T00:42:02.404Z,1015.7
2023-09-14T00:43:02.562Z,1015.6
2023-09-14T00:44:02.517Z,1015.7
2023-09-14T00:45:02.188Z,1015.7
2023-09-14T00:46:02.355Z,1015.8
2023-09-14T00:47:02.431Z,1015.8
2023-09-14T00:48:02.449Z,1015.8
2023-09-14T00:49:02.193Z,1015.8
2023-09-14T00:50:02.102Z,1015.7
2023-09-14T00:51:01.967Z,1015.7
2023-09-14T00:52:02.090Z,1015.8
2023-09-14T00:53:01.898Z,1015.7
2023-09-14T00:54:01.974Z,1015.7
2023-09-14T00:55:01.789Z,1015.8
2023-09-14T00:56:01.814Z,1015.7
2023-09-14T00:57:01.644Z,1015.8
2023-09-14T00:58:02.317Z,1015.8
2023-09-14T00:59:02.052Z,1015.7
2023-09-14T01:00:02.940Z,1015.8
2023-09-14T01:01:02.660Z,1015.7
2023-09-14T01:02:03.098Z,1015.8
2023-09-14T01:03:02.386Z,1015.8
2023-09-14T01:04:03.084Z,1015.8
2023-09-14T01:05:01.880Z,1015.8
2023-09-14T01:06:01.750Z,1015.8
2023-09-14T01:07:01.708Z,1015.8
2023-09-14T01:08:02.672Z,1015.8
2023-09-14T01:09:02.556Z,1015.8
2023-09-14T01:10:03.309Z,1015.8
2023-09-14T01:11:01.976Z,1015.8
2023-09-14T01:12:01.987Z,1015.8
2023-09-14T01:13:01.968Z,1015.8
2023-09-14T01:14:01.805Z,1015.8
2023-09-14T01:15:01.754Z,1015.9
2023-09-14T01:16:01.947Z,1015.9
2023-09-14T01:17:02.040Z,1015.8
2023-09-14T01:18:02.023Z,1015.8
2023-09-14T01:19:02.034Z,1015.8
2023-09-14T01:20:01.644Z,1015.8
2023-09-14T01:21:02.800Z,1015.8
2023-09-14T01:22:02.802Z,1015.9
2023-09-14T01:23:02.648Z,1015.9
2023-09-14T01:24:02.528Z,1015.9
2023-09-14T01:25:02.843Z,1016
2023-09-14T01:26:02.458Z,1015.9
2023-09-14T01:27:02.534Z,1015.9
2023-09-14T01:28:02.535Z,1015.9
2023-09-14T01:29:02.447Z,1015.9
2023-09-14T01:30:02.331Z,1015.9
2023-09-14T01:31:02.575Z,1015.9
2023-09-14T01:32:02.334Z,1015.8
2023-09-14T01:33:02.510Z,1015.8
2023-09-14T01:34:02.575Z,1015.9
2023-09-14T01:35:02.499Z,1015.9
2023-09-14T01:36:02.338Z,1015.9
2023-09-14T01:37:02.174Z,1015.8
2023-09-14T01:38:05.414Z,1015.9
2023-09-14T01:39:02.039Z,1015.9
2023-09-14T01:40:02.270Z,1015.9
2023-09-14T01:41:02.272Z,1016
2023-09-14T01:42:01.901Z,1016
2023-09-14T01:43:02.067Z,1015.9
2023-09-14T01:44:01.775Z,1016
2023-09-14T01:45:01.659Z,1015.9
2023-09-14T01:46:03.013Z,1015.9
2023-09-14T01:47:01.904Z,1015.9
2023-09-14T01:48:01.884Z,1015.9
2023-09-14T01:49:01.761Z,1016
2023-09-14T01:50:02.766Z,1016
2023-09-14T01:51:02.562Z,1016
2023-09-14T01:52:02.837Z,1016
2023-09-14T01:53:02.522Z,1016
2023-09-14T01:54:02.568Z,1016
2023-09-14T01:55:02.534Z,1016
2023-09-14T01:56:02.495Z,1016.1
2023-09-14T01:57:02.295Z,1016
2023-09-14T01:58:02.660Z,1016.1
2023-09-14T01:59:02.442Z,1016
2023-09-14T02:00:03.505Z,1016
2023-09-14T02:02:02.317Z,1016.1
2023-09-14T02:03:02.123Z,1016.1
2023-09-14T02:04:02.038Z,1016.1
2023-09-14T02:05:01.914Z,1016.1
2023-09-14T02:06:01.667Z,1016.1
2023-09-14T02:07:02.958Z,1016.1
2023-09-14T02:08:01.687Z,1016.1
2023-09-14T02:09:01.618Z,1016.1
2023-09-14T02:10:02.825Z,1016
2023-09-14T02:11:02.625Z,1016.1
2023-09-14T02:12:02.504Z,1016.1
2023-09-14T02:13:02.693Z,1016.1
2023-09-14T02:14:02.409Z,1016.1
2023-09-14T02:15:02.331Z,1016.1
2023-09-14T02:16:02.681Z,1016.1
2023-09-14T02:17:02.776Z,1016.1
2023-09-14T02:18:02.626Z,1016.1
2023-09-14T02:19:02.841Z,1016.2
2023-09-14T02:20:02.532Z,1016.2
2023-09-14T02:21:02.664Z,1016.2
2023-09-14T02:22:03.820Z,1016.2
2023-09-14T02:23:02.250Z,1016.2
2023-09-14T02:24:02.244Z,1016.2
2023-09-14T02:25:02.382Z,1016.1
2023-09-14T02:26:02.093Z,1016.2
2023-09-14T02:27:02.124Z,1016.2
2023-09-14T02:28:02.003Z,1016.2
2023-09-14T02:29:01.908Z,1016.1
2023-09-14T02:30:01.843Z,1016.1
2023-09-14T02:31:01.750Z,1016.1
2023-09-14T02:32:02.790Z,1016.2
2023-09-14T02:33:02.567Z,1016.1
2023-09-14T02:34:02.715Z,1016.1
2023-09-14T02:35:02.377Z,1016.1
2023-09-14T02:36:02.428Z,1016.2
2023-09-14T02:37:02.403Z,1016.2
2023-09-14T02:38:02.421Z,1016.1
2023-09-14T02:39:02.368Z,1016.1
2023-09-14T02:40:02.440Z,1016.2
2023-09-14T02:41:02.318Z,1016.2
2023-09-14T02:42:02.195Z,1016.2
2023-09-14T02:43:02.248Z,1016.2
2023-09-14T02:44:02.460Z,1016.2
2023-09-14T02:45:02.091Z,1016.2
2023-09-14T02:46:02.236Z,1016.1
2023-09-14T02:47:02.550Z,1016.1
2023-09-14T02:48:02.638Z,1016.1
2023-09-14T02:49:02.466Z,1016.2
2023-09-14T02:50:02.443Z,1016.2
2023-09-14T02:51:02.273Z,1016.2
2023-09-14T02:52:02.501Z,1016.2
2023-09-14T02:53:02.326Z,1016.2
2023-09-14T02:54:02.101Z,1016.3
2023-09-14T02:55:02.292Z,1016.3
2023-09-14T02:56:01.932Z,1016.2
2023-09-14T02:57:01.937Z,1016.3
2023-09-14T02:58:01.970Z,1016.3
2023-09-14T02:59:01.868Z,1016.2
2023-09-14T03:00:02.976Z,1016.2
2023-09-14T03:02:03.004Z,1016.3
2023-09-14T03:03:01.936Z,1016.4
2023-09-14T03:04:01.990Z,1016.3
2023-09-14T03:05:01.783Z,1016.3
2023-09-14T03:06:02.630Z,1016.4
2023-09-14T03:07:02.591Z,1016.4
2023-09-14T03:08:02.634Z,1016.4
2023-09-14T03:09:02.497Z,1016.4
2023-09-14T03:10:02.865Z,1016.4
2023-09-14T03:11:02.518Z,1016.4
2023-09-14T03:12:02.559Z,1016.4
2023-09-14T03:13:02.498Z,1016.4
2023-09-14T03:14:02.453Z,1016.4
2023-09-14T03:15:02.436Z,1016.4
2023-09-14T03:16:02.679Z,1016.4
2023-09-14T03:17:02.578Z,1016.3
2023-09-14T03:18:02.654Z,1016.4
2023-09-14T03:19:02.473Z,1016.4
2023-09-14T03:20:02.415Z,1016.4
2023-09-14T03:21:02.399Z,1016.5
2023-09-14T03:22:02.418Z,1016.4
2023-09-14T03:23:02.339Z,1016.5
2023-09-14T03:24:02.035Z,1016.4
2023-09-14T03:25:02.256Z,1016.5
2023-09-14T03:26:01.950Z,1016.5
2023-09-14T03:27:01.968Z,1016.4
2023-09-14T03:28:02.200Z,1016.5
2023-09-14T03:29:01.976Z,1016.5
2023-09-14T03:30:01.992Z,1016.5
2023-09-14T03:31:02.399Z,1016.5
2023-09-14T03:32:02.260Z,1016.5
2023-09-14T03:33:02.198Z,1016.5
2023-09-14T03:34:02.048Z,1016.5
2023-09-14T03:35:01.939Z,1016.5
2023-09-14T03:36:01.762Z,1016.5
2023-09-14T03:37:01.943Z,1016.5
2023-09-14T03:38:01.887Z,1016.6
2023-09-14T03:39:02.675Z,1016.6
2023-09-14T03:40:02.740Z,1016.6
2023-09-14T03:41:02.548Z,1016.6
2023-09-14T03:42:03.561Z,1016.6
2023-09-14T03:43:01.932Z,1016.5
2023-09-14T03:44:01.877Z,1016.6
2023-09-14T03:45:01.683Z,1016.6
2023-09-14T03:46:02.436Z,1016.6
2023-09-14T03:47:02.243Z,1016.6
2023-09-14T03:48:02.301Z,1016.6
2023-09-14T03:49:02.052Z,1016.6
2023-09-14T03:50:02.098Z,1016.5
2023-09-14T03:51:01.900Z,1016.6
2023-09-14T03:52:02.148Z,1016.6
2023-09-14T03:53:01.758Z,1016.6
2023-09-14T03:54:01.772Z,1016.6
2023-09-14T03:55:01.748Z,1016.7
2023-09-14T03:56:02.762Z,1016.7
2023-09-14T03:57:02.550Z,1016.6
2023-09-14T03:58:02.670Z,1016.7
2023-09-14T03:59:02.480Z,1016.7
2023-09-14T04:00:02.579Z,1016.7
2023-09-14T04:01:02.659Z,1016.7
2023-09-14T04:02:02.630Z,1016.7
2023-09-14T04:03:02.510Z,1016.8
2023-09-14T04:04:02.541Z,1016.7
2023-09-14T04:05:02.503Z,1016.8
2023-09-14T04:06:02.281Z,1016.8
2023-09-14T04:07:02.474Z,1016.8
2023-09-14T04:08:02.393Z,1016.8
2023-09-14T04:09:02.144Z,1016.9
2023-09-14T04:10:02.202Z,1016.9
2023-09-14T04:11:01.883Z,1016.9
2023-09-14T04:12:01.877Z,1016.9
2023-09-14T04:13:01.754Z,1016.9
2023-09-14T04:14:01.752Z,1016.9
2023-09-14T04:15:02.650Z,1016.9
2023-09-14T04:16:02.916Z,1016.9
2023-09-14T04:17:01.975Z,1016.9
2023-09-14T04:18:01.814Z,1016.9
2023-09-14T04:19:02.942Z,1016.9
2023-09-14T04:20:01.620Z,1016.9
2023-09-14T04:21:02.593Z,1016.9
2023-09-14T04:22:02.631Z,1016.9
2023-09-14T04:23:02.521Z,1016.9
2023-09-14T04:24:02.378Z,1016.9
2023-09-14T04:25:02.738Z,1017
2023-09-14T04:26:02.473Z,1017
2023-09-14T04:27:02.450Z,1016.9
2023-09-14T04:28:02.507Z,1017
2023-09-14T04:29:02.273Z,1017
2023-09-14T04:30:02.270Z,1017
2023-09-14T04:31:02.886Z,1017
2023-09-14T04:32:01.853Z,1017.1
2023-09-14T04:33:01.757Z,1017.1
2023-09-14T04:34:02.795Z,1017
2023-09-14T04:35:02.474Z,1017
2023-09-14T04:36:02.730Z,1017.1
2023-09-14T04:37:02.607Z,1017.1
2023-09-14T04:38:02.598Z,1017.1
2023-09-14T04:39:02.438Z,1017.1
2023-09-14T04:40:02.589Z,1017.2
2023-09-14T04:41:02.606Z,1017.2
2023-09-14T04:42:02.425Z,1017.2
2023-09-14T04:43:02.725Z,1017.2
2023-09-14T04:44:02.370Z,1017.2
2023-09-14T04:45:02.562Z,1017.2
2023-09-14T04:46:02.738Z,1017.2
2023-09-14T04:47:02.691Z,1017.2
2023-09-14T04:48:02.597Z,1017.2
2023-09-14T04:49:02.606Z,1017.3
2023-09-14T04:50:02.614Z,1017.2
2023-09-14T04:51:02.415Z,1017.3
2023-09-14T04:52:02.597Z,1017.4
2023-09-14T04:53:02.501Z,1017.3
2023-09-14T04:54:02.267Z,1017.3
2023-09-14T04:55:02.849Z,1017.4
2023-09-14T04:56:02.658Z,1017.4
2023-09-14T04:57:02.536Z,1017.4
2023-09-14T04:58:02.831Z,1017.4
2023-09-14T04:59:02.163Z,1017.4
2023-09-14T05:00:03.702Z,1017.4
2023-09-14T05:02:01.911Z,1017.5
2023-09-14T05:03:01.846Z,1017.5
2023-09-14T05:04:06.152Z,1017.5
2023-09-14T05:05:01.964Z,1017.6
2023-09-14T05:06:01.818Z,1017.6
2023-09-14T05:07:01.833Z,1017.6
2023-09-14T05:08:01.714Z,1017.6
2023-09-14T05:09:02.691Z,1017.6
2023-09-14T05:10:02.768Z,1017.6
2023-09-14T05:11:02.641Z,1017.7
2023-09-14T05:12:02.535Z,1017.6
2023-09-14T05:13:06.132Z,1017.6
2023-09-14T05:14:01.764Z,1017.6
2023-09-14T05:15:01.857Z,1017.7
2023-09-14T05:16:01.905Z,1017.7
2023-09-14T05:17:01.830Z,1017.8
2023-09-14T05:18:01.751Z,1017.8
2023-09-14T05:19:06.914Z,1017.8
2023-09-14T05:20:02.748Z,1017.8
2023-09-14T05:21:02.589Z,1017.8
2023-09-14T05:22:02.596Z,1017.8
2023-09-14T05:23:02.579Z,1017.8
2023-09-14T05:24:02.455Z,1017.8
2023-09-14T05:25:02.666Z,1017.8
2023-09-14T05:26:02.418Z,1017.7
2023-09-14T05:27:02.421Z,1017.8
2023-09-14T05:28:02.514Z,1017.8
2023-09-14T05:29:02.206Z,1017.8
2023-09-14T05:30:02.196Z,1017.8
2023-09-14T05:31:02.519Z,1017.8
2023-09-14T05:32:02.205Z,1017.8
2023-09-14T05:33:02.383Z,1017.8
2023-09-14T05:34:02.325Z,1017.9
2023-09-14T05:35:02.037Z,1017.8
2023-09-14T05:36:02.138Z,1017.9
2023-09-14T05:37:02.361Z,1017.9
2023-09-14T05:38:01.996Z,1017.9
2023-09-14T05:39:02.077Z,1017.9
2023-09-14T05:40:02.389Z,1017.9
2023-09-14T05:41:02.113Z,1017.9
2023-09-14T05:42:02.050Z,1017.9
2023-09-14T05:43:02.348Z,1018
2023-09-14T05:44:01.965Z,1018
2023-09-14T05:45:02.026Z,1018
2023-09-14T05:46:02.360Z,1018
2023-09-14T05:47:02.193Z,1018
2023-09-14T05:48:02.701Z,1018
2023-09-14T05:49:02.669Z,1018
2023-09-14T05:50:02.677Z,1018.1
2023-09-14T05:51:02.457Z,1018.1
2023-09-14T05:52:02.554Z,1018.1
2023-09-14T05:53:02.433Z,1018.1
2023-09-14T05:54:02.342Z,1018.1
2023-09-14T05:55:02.687Z,1018.1
2023-09-14T05:56:02.357Z,1018.1
2023-09-14T05:57:02.387Z,1018.1
2023-09-14T05:58:02.556Z,1018.2
2023-09-14T05:59:02.335Z,1018.1
2023-09-14T06:00:02.365Z,1018.1
2023-09-14T06:02:02.191Z,1018.1
2023-09-14T06:03:02.025Z,1018.1
2023-09-14T06:04:02.308Z,1018.2
2023-09-14T06:05:26.650Z,1018.1
2023-09-14T06:06:02.505Z,1018.1
2023-09-14T06:07:02.779Z,1018.1
2023-09-14T06:08:02.459Z,1018.2
2023-09-14T06:09:02.524Z,1018.2
2023-09-14T06:10:02.657Z,1018.2
2023-09-14T06:11:02.359Z,1018.2
2023-09-14T06:12:02.566Z,1018.2
2023-09-14T06:13:02.359Z,1018.1
2023-09-14T06:14:02.409Z,1018.2
2023-09-14T06:15:02.264Z,1018.1
2023-09-14T06:16:02.465Z,1018.1
2023-09-14T06:17:02.346Z,1018.1
2023-09-14T06:18:02.404Z,1018.1
2023-09-14T06:19:02.254Z,1018.2
2023-09-14T06:20:02.533Z,1018.2
2023-09-14T06:21:02.457Z,1018.2
2023-09-14T06:22:02.165Z,1018.2
2023-09-14T06:23:02.187Z,1018.2
2023-09-14T06:24:01.992Z,1018.2
2023-09-14T06:25:02.130Z,1018.3
2023-09-14T06:26:01.871Z,1018.2
2023-09-14T06:27:01.997Z,1018.2
2023-09-14T06:28:01.764Z,1018.2
2023-09-14T06:29:01.740Z,1018.2
2023-09-14T06:30:02.654Z,1018.3
2023-09-14T06:32:01.773Z,1018.3
2023-09-14T06:33:01.855Z,1018.3
2023-09-14T06:34:02.789Z,1018.3
2023-09-14T06:35:02.539Z,1018.2
2023-09-14T06:36:02.622Z,1018.3
2023-09-14T06:37:02.571Z,1018.3
2023-09-14T06:38:02.501Z,1018.3
2023-09-14T06:39:02.329Z,1018.3
2023-09-14T06:40:02.659Z,1018.2
2023-09-14T06:41:02.285Z,1018.2
2023-09-14T06:42:02.397Z,1018.3
2023-09-14T06:43:02.533Z,1018.3
2023-09-14T06:44:02.209Z,1018.2
2023-09-14T06:45:02.195Z,1018.3
2023-09-14T06:46:02.389Z,1018.3
2023-09-14T06:47:02.283Z,1018.3
2023-09-14T06:48:02.347Z,1018.3
2023-09-14T06:49:02.316Z,1018.3
2023-09-14T06:50:01.968Z,1018.3
2023-09-14T06:51:01.980Z,1018.3
2023-09-14T06:52:02.359Z,1018.3
2023-09-14T06:53:02.141Z,1018.4
2023-09-14T06:54:02.174Z,1018.3
2023-09-14T06:55:02.350Z,1018.3
2023-09-14T06:56:02.091Z,1018.4
2023-09-14T06:57:07.580Z,1018.4
2023-09-14T06:58:02.707Z,1018.3
2023-09-14T06:59:02.616Z,1018.4
2023-09-14T07:00:03.161Z,1018.4
2023-09-14T07:02:02.541Z,1018.4
2023-09-14T07:03:02.567Z,1018.4
2023-09-14T07:04:02.710Z,1018.4
2023-09-14T07:05:02.665Z,1018.4
2023-09-14T07:06:02.674Z,1018.4
2023-09-14T07:07:02.652Z,1018.5
2023-09-14T07:08:02.478Z,1018.5
2023-09-14T07:09:02.578Z,1018.5
2023-09-14T07:10:02.511Z,1018.5
2023-09-14T07:11:02.451Z,1018.5
2023-09-14T07:12:02.466Z,1018.5
2023-09-14T07:13:02.377Z,1018.5
2023-09-14T07:14:02.402Z,1018.5
2023-09-14T07:15:02.297Z,1018.5
2023-09-14T07:16:02.435Z,1018.6
2023-09-14T07:17:02.767Z,1018.6
2023-09-14T07:18:02.648Z,1018.6
2023-09-14T07:19:02.511Z,1018.7
2023-09-14T07:20:02.670Z,1018.6
2023-09-14T07:21:02.411Z,1018.6
2023-09-14T07:22:02.653Z,1018.7
2023-09-14T07:23:02.339Z,1018.6
2023-09-14T07:24:02.498Z,1018.6
2023-09-14T07:25:02.434Z,1018.6
2023-09-14T07:26:02.159Z,1018.6
2023-09-14T07:27:02.219Z,1018.6
2023-09-14T07:28:02.303Z,1018.7
2023-09-14T07:29:02.013Z,1018.6
2023-09-14T07:30:02.263Z,1018.6
2023-09-14T07:32:02.718Z,1018.7
2023-09-14T07:33:02.769Z,1018.7
2023-09-14T07:34:03.037Z,1018.7
2023-09-14T07:35:01.806Z,1018.7
2023-09-14T07:36:01.781Z,1018.7
2023-09-14T07:37:01.756Z,1018.8
2023-09-14T07:38:01.809Z,1018.7
2023-09-14T07:39:02.684Z,1018.7
2023-09-14T07:40:02.858Z,1018.7
2023-09-14T07:41:04.628Z,1018.8
2023-09-14T07:42:02.249Z,1018.7
2023-09-14T07:43:02.279Z,1018.7
2023-09-14T07:44:02.192Z,1018.7
2023-09-14T07:45:02.112Z,1018.7
2023-09-14T07:46:01.806Z,1018.7
2023-09-14T07:47:01.900Z,1018.8
2023-09-14T07:48:02.718Z,1018.8
2023-09-14T07:49:02.719Z,1018.8
2023-09-14T07:50:02.572Z,1018.7
2023-09-14T07:51:02.471Z,1018.8
2023-09-14T07:52:02.515Z,1018.8
2023-09-14T07:53:02.433Z,1018.8
2023-09-14T07:54:02.317Z,1018.8
2023-09-14T07:55:02.479Z,1018.9
2023-09-14T07:56:02.263Z,1018.8
2023-09-14T07:57:02.363Z,1018.9
2023-09-14T07:58:02.224Z,1018.8
2023-09-14T07:59:02.064Z,1018.8
2023-09-14T08:00:03.045Z,1018.9
2023-09-14T08:02:02.476Z,1018.9
2023-09-14T08:03:02.495Z,1018.9
2023-09-14T08:04:03.036Z,1018.9
2023-09-14T08:05:02.297Z,1018.9
2023-09-14T08:06:02.065Z,1018.9
2023-09-14T08:07:02.216Z,1018.9
2023-09-14T08:08:01.942Z,1018.9
2023-09-14T08:09:01.889Z,1018.9
2023-09-14T08:10:02.003Z,1018.9
2023-09-14T08:11:01.853Z,1018.9
2023-09-14T08:12:01.695Z,1018.9
2023-09-14T08:13:01.709Z,1018.9
2023-09-14T08:14:01.589Z,1018.9
2023-09-14T08:15:05.734Z,1018.9
2023-09-14T08:16:02.403Z,1019
2023-09-14T08:17:02.389Z,1019
2023-09-14T08:18:02.339Z,1019
2023-09-14T08:19:02.203Z,1018.9
2023-09-14T08:20:02.029Z,1019
2023-09-14T08:21:02.107Z,1019
2023-09-14T08:22:01.975Z,1019.1
2023-09-14T08:23:01.870Z,1019.1
2023-09-14T08:24:01.677Z,1019
2023-09-14T08:25:01.735Z,1019
2023-09-14T08:26:02.633Z,1019
2023-09-14T08:27:02.603Z,1019
2023-09-14T08:28:02.802Z,1019.1
2023-09-14T08:29:02.495Z,1019
2023-09-14T08:30:02.466Z,1019
2023-09-14T08:31:02.598Z,1019.1
2023-09-14T08:32:03.325Z,1019.1
2023-09-14T08:33:02.072Z,1019.1
2023-09-14T08:34:02.090Z,1019.1
2023-09-14T08:35:01.891Z,1019.1
2023-09-14T08:36:01.813Z,1019.1
2023-09-14T08:37:01.937Z,1019.1
2023-09-14T08:38:01.665Z,1019.2
2023-09-14T08:39:17.550Z,1019.1
2023-09-14T08:40:02.314Z,1019.1
2023-09-14T08:41:02.130Z,1019.2
2023-09-14T08:42:02.015Z,1019.2
2023-09-14T08:43:02.054Z,1019.2
2023-09-14T08:44:02.084Z,1019.2
2023-09-14T08:45:01.831Z,1019.2
2023-09-14T08:46:02.651Z,1019.2
2023-09-14T08:47:02.751Z,1019.2
2023-09-14T08:48:02.830Z,1019.2
2023-09-14T08:49:02.817Z,1019.2
2023-09-14T08:50:02.532Z,1019.2
2023-09-14T08:51:03.891Z,1019.2
2023-09-14T08:52:02.669Z,1019.2
2023-09-14T08:53:02.472Z,1019.2
2023-09-14T08:54:18.085Z,1019.2
2023-09-14T08:55:01.781Z,1019.2
2023-09-14T08:56:01.619Z,1019.3
2023-09-14T08:57:02.604Z,1019.2
2023-09-14T08:58:02.788Z,1019.2
2023-09-14T08:59:02.630Z,1019.3
2023-09-14T09:00:02.442Z,1019.3
2023-09-14T09:01:02.289Z,1019.3
2023-09-14T09:02:02.495Z,1019.3
2023-09-14T09:03:02.282Z,1019.3
2023-09-14T09:04:02.697Z,1019.3
2023-09-14T09:05:02.907Z,1019.3
2023-09-14T09:06:02.620Z,1019.3
2023-09-14T09:07:02.669Z,1019.3
2023-09-14T09:08:02.492Z,1019.3
2023-09-14T09:09:02.566Z,1019.3
2023-09-14T09:10:02.604Z,1019.3
2023-09-14T09:11:02.371Z,1019.3
2023-09-14T09:12:02.843Z,1019.3
2023-09-14T09:13:05.286Z,1019.4
2023-09-14T09:14:01.956Z,1019.4
2023-09-14T09:15:01.976Z,1019.4
2023-09-14T09:16:02.656Z,1019.4
2023-09-14T09:17:02.716Z,1019.4
2023-09-14T09:18:02.588Z,1019.4
2023-09-14T09:19:09.621Z,1019.4
2023-09-14T09:20:03.130Z,1019.3
2023-09-14T09:21:01.785Z,1019.4
2023-09-14T09:22:01.876Z,1019.4
2023-09-14T09:23:02.171Z,1019.4
2023-09-14T09:24:02.130Z,1019.4
2023-09-14T09:25:02.280Z,1019.4
2023-09-14T09:26:02.032Z,1019.3
2023-09-14T09:27:02.137Z,1019.4
2023-09-14T09:28:02.204Z,1019.4
2023-09-14T09:29:01.836Z,1019.4
2023-09-14T09:30:01.824Z,1019.4
2023-09-14T09:31:02.635Z,1019.4
2023-09-14T09:32:02.910Z,1019.3
2023-09-14T09:33:02.693Z,1019.4
2023-09-14T09:34:02.633Z,1019.4
2023-09-14T09:35:02.557Z,1019.4
2023-09-14T09:36:02.532Z,1019.5
2023-09-14T09:37:02.510Z,1019.4
2023-09-14T09:38:03.067Z,1019.4
2023-09-14T09:39:01.700Z,1019.5
2023-09-14T09:40:01.778Z,1019.5
2023-09-14T09:41:02.850Z,1019.4
2023-09-14T09:42:02.548Z,1019.4
2023-09-14T09:43:02.571Z,1019.4
2023-09-14T09:44:02.413Z,1019.4
2023-09-14T09:45:02.558Z,1019.4
2023-09-14T09:46:02.358Z,1019.3
2023-09-14T09:47:02.234Z,1019.4
2023-09-14T09:48:02.109Z,1019.4
2023-09-14T09:49:02.103Z,1019.4
2023-09-14T09:50:01.947Z,1019.4
2023-09-14T09:51:01.808Z,1019.5
2023-09-14T09:52:02.174Z,1019.5
2023-09-14T09:53:02.119Z,1019.5
2023-09-14T09:54:01.772Z,1019.4
2023-09-14T09:55:01.820Z,1019.4
2023-09-14T09:56:01.677Z,1019.4
2023-09-14T09:57:03.075Z,1019.4
2023-09-14T09:58:01.789Z,1019.4
2023-09-14T09:59:01.641Z,1019.4
2023-09-14T10:00:02.691Z,1019.5
2023-09-14T10:01:02.416Z,1019.4
2023-09-14T10:02:02.850Z,1019.4
2023-09-14T10:03:02.910Z,1019.4
2023-09-14T10:04:01.709Z,1019.4
2023-09-14T10:05:01.654Z,1019.3
2023-09-14T10:06:02.602Z,1019.4
2023-09-14T10:07:02.726Z,1019.4
2023-09-14T10:08:02.603Z,1019.3
2023-09-14T10:09:02.481Z,1019.4
2023-09-14T10:10:02.586Z,1019.4
2023-09-14T10:11:02.329Z,1019.4
2023-09-14T10:12:02.433Z,1019.5
2023-09-14T10:13:02.483Z,1019.4
2023-09-14T10:14:02.253Z,1019.4
2023-09-14T10:15:02.360Z,1019.4
2023-09-14T10:16:02.408Z,1019.4
2023-09-14T10:17:02.356Z,1019.5
2023-09-14T10:18:02.231Z,1019.4
2023-09-14T10:19:02.070Z,1019.4
2023-09-14T10:20:01.980Z,1019.4
2023-09-14T10:21:01.781Z,1019.4
2023-09-14T10:22:01.818Z,1019.4
2023-09-14T10:23:01.736Z,1019.4
2023-09-14T10:24:01.627Z,1019.4
2023-09-14T10:25:01.726Z,1019.4
2023-09-14T10:26:02.320Z,1019.5
2023-09-14T10:27:02.293Z,1019.4
2023-09-14T10:28:02.417Z,1019.5
2023-09-14T10:29:02.173Z,1019.4
2023-09-14T10:30:02.166Z,1019.4
2023-09-14T10:31:02.135Z,1019.4
2023-09-14T10:32:01.850Z,1019.4
2023-09-14T10:33:01.918Z,1019.4
2023-09-14T10:34:01.915Z,1019.5
2023-09-14T10:35:07.693Z,1019.5
2023-09-14T10:36:02.333Z,1019.5
2023-09-14T10:37:02.356Z,1019.4
2023-09-14T10:38:02.390Z,1019.5
2023-09-14T10:39:01.922Z,1019.5
2023-09-14T10:40:01.866Z,1019.4
2023-09-14T10:41:04.091Z,1019.4
2023-09-14T10:42:01.643Z,1019.4
2023-09-14T10:43:01.765Z,1019.4
2023-09-14T10:44:02.716Z,1019.5
2023-09-14T10:45:02.516Z,1019.4
2023-09-14T10:46:02.841Z,1019.4
2023-09-14T10:47:04.699Z,1019.4
2023-09-14T10:48:02.493Z,1019.4
2023-09-14T10:49:02.602Z,1019.4
2023-09-14T10:50:02.581Z,1019.4
2023-09-14T10:51:02.354Z,1019.4
2023-09-14T10:52:02.417Z,1019.4
2023-09-14T10:53:02.157Z,1019.5
2023-09-14T10:54:02.182Z,1019.5
2023-09-14T10:55:02.308Z,1019.5
2023-09-14T10:56:02.039Z,1019.4
2023-09-14T10:57:02.010Z,1019.5
2023-09-14T10:58:01.957Z,1019.5
2023-09-14T10:59:01.780Z,1019.4
2023-09-14T11:00:26.068Z,1019.5
2023-09-14T11:01:24.955Z,1019.4
2023-09-14T11:02:23.648Z,1019.4
2023-09-14T11:03:25.806Z,1019.5
2023-09-14T11:04:02.290Z,1019.5
2023-09-14T11:05:09.279Z,1019.4
2023-09-14T11:06:04.214Z,1019.4
2023-09-14T11:07:04.059Z,1019.4
2023-09-14T11:08:03.611Z,1019.5
2023-09-14T11:09:06.757Z,1019.5
2023-09-14T11:10:03.237Z,1019.5
2023-09-14T11:11:06.649Z,1019.5
2023-09-14T11:12:05.439Z,1019.5
2023-09-14T11:13:03.340Z,1019.5
2023-09-14T11:14:03.868Z,1019.6
2023-09-14T11:15:03.149Z,1019.6
2023-09-14T11:16:04.389Z,1019.6
2023-09-14T11:17:05.200Z,1019.5
2023-09-14T11:18:03.791Z,1019.4
2023-09-14T11:19:05.620Z,1019.5
2023-09-14T11:20:05.219Z,1019.5
2023-09-14T11:21:06.001Z,1019.5
2023-09-14T11:22:05.103Z,1019.5
2023-09-14T11:23:02.351Z,1019.5
2023-09-14T11:24:05.441Z,1019.5
2023-09-14T11:25:29.385Z,1019.5
2023-09-14T11:26:22.778Z,1019.6
2023-09-14T11:27:04.650Z,1019.6
2023-09-14T11:28:04.798Z,1019.6
2023-09-14T11:29:05.042Z,1019.6
2023-09-14T11:30:05.672Z,1019.6
2023-09-14T11:32:11.930Z,1019.6
2023-09-14T11:33:05.219Z,1019.5
2023-09-14T11:34:05.366Z,1019.6
2023-09-14T11:35:09.930Z,1019.6
2023-09-14T11:36:08.733Z,1019.6
2023-09-14T11:37:13.460Z,1019.6
2023-09-14T11:38:12.594Z,1019.6
2023-09-14T11:39:08.268Z,1019.6
2023-09-14T11:40:11.093Z,1019.6
2023-09-14T11:41:27.799Z,1019.6
2023-09-14T11:42:15.306Z,1019.6
2023-09-14T11:43:11.756Z,1019.7
2023-09-14T11:45:13.259Z,1019.6
2023-09-14T11:46:11.876Z,1019.6
2023-09-14T11:47:14.814Z,1019.6
2023-09-14T11:50:03.305Z,1019.7
2023-09-14T11:51:07.231Z,1019.7
2023-09-14T11:52:01.910Z,1019.7
2023-09-14T11:53:01.980Z,1019.7
2023-09-14T11:54:01.718Z,1019.8
2023-09-14T11:55:01.910Z,1019.7
2023-09-14T11:56:01.592Z,1019.8
2023-09-14T11:57:02.697Z,1019.8
2023-09-14T11:58:02.563Z,1019.8
2023-09-14T11:59:02.566Z,1019.8
2023-09-14T12:00:03.469Z,1019.8
2023-09-14T12:02:01.784Z,1019.8
2023-09-14T12:03:01.872Z,1019.8
2023-09-14T12:04:02.244Z,1019.8
2023-09-14T12:05:01.972Z,1019.8
2023-09-14T12:06:02.108Z,1019.8
2023-09-14T12:07:01.749Z,1019.9
2023-09-14T12:08:01.759Z,1019.9
2023-09-14T12:09:01.627Z,1019.9
2023-09-14T12:10:02.952Z,1019.8
2023-09-14T12:11:01.617Z,1019.9
2023-09-14T12:12:02.623Z,1019.9
2023-09-14T12:13:02.574Z,1019.9
2023-09-14T12:14:02.637Z,1019.9
2023-09-14T12:15:02.391Z,1019.9
2023-09-14T12:16:03.150Z,1019.9
2023-09-14T12:17:02.399Z,1019.9
2023-09-14T12:18:02.323Z,1019.9
2023-09-14T12:19:02.182Z,1019.9
2023-09-14T12:20:02.776Z,1019.9
2023-09-14T12:21:02.514Z,1019.9
2023-09-14T12:22:02.304Z,1019.9
2023-09-14T12:23:02.398Z,1019.9
2023-09-14T12:24:02.328Z,1019.9
2023-09-14T12:25:02.439Z,1019.9
2023-09-14T12:26:02.329Z,1020
2023-09-14T12:27:02.054Z,1020
2023-09-14T12:28:02.104Z,1020
2023-09-14T12:29:01.985Z,1020
2023-09-14T12:30:02.214Z,1020.1
2023-09-14T12:31:01.946Z,1020
2023-09-14T12:32:01.921Z,1020
2023-09-14T12:33:02.004Z,1020
2023-09-14T12:34:02.247Z,1020.1
2023-09-14T12:35:02.592Z,1020.1
2023-09-14T12:36:02.273Z,1020
2023-09-14T12:37:02.379Z,1020
2023-09-14T12:38:02.254Z,1020
2023-09-14T12:39:02.105Z,1020.1
2023-09-14T12:40:02.316Z,1020
2023-09-14T12:41:01.966Z,1020.1
2023-09-14T12:42:01.997Z,1020.1
2023-09-14T12:43:02.005Z,1020.1
2023-09-14T12:44:01.909Z,1020.1
2023-09-14T12:45:01.649Z,1020